Terminal Aerodrome Forecast
Issued by NWS

Home | Current Version | Previous Version | Text Only | Print | Product List | Glossary On
Versions: 1 2 3 4 5 6 7 8 9 10 11 12 13 14 15 16 17 18 19 20 21 22 23 24 25 26 27 28 29 30
000
FTUS43 KILX 260500
TAFBMI
TAF
KBMI 260525Z 2606/2706 14006KT P6SM SCT250
     FM261500 13008KT P6SM SCT070 BKN150
     FM262000 12007KT P6SM VCSH BKN040
     FM270100 04006KT P6SM BKN040=

USA.gov is the U.S. government's official web portal to all federal, state and local government web resources and services.